Orbital elements of SL-16 DEB
| Launched | 9 July 1998 |
| Flight ended | – |
| Launch site | Tyuratam Missile and Space Center, Kazakhstan (Also known as Baikonur Cosmodrome) |
| Owner | Commonwealth of Independent States (former USSR) |
| NORAD ID | 25402 |
| Date fetched |
Epoch osculation |
Inc. [°] |
Ecc. | RA asc node [hr] |
Arg Peri. [°] |
Mean anom [°] |
Mean motion [rev/day] |
Abs. mag |
| Date fetched |
Epoch osculation |
Inc. [°] |
Ecc. | RA asc node [hr] |
Arg Peri. [°] |
Mean anom [°] |
Mean motion [rev/day] |
Abs. mag |
| 2026 May 05 17:57 | 2026 May 05 09:53:06 | 99.2326 | 0.01541 | 12.3549 | 116.4243 | 256.3147 | 13.96938 | – |
| 2026 May 04 17:57 | 2026 Apr 30 09:33:33 | 99.2334 | 0.01541 | 12.0192 | 129.9632 | 256.3147 | 13.96938 | – |
| 2026 May 03 17:57 | 2026 Apr 30 09:33:33 | 99.2334 | 0.01541 | 12.0192 | 129.9632 | 256.3147 | 13.96938 | – |
| 2026 May 02 17:57 | 2026 Apr 30 09:33:33 | 99.2334 | 0.01541 | 12.0192 | 129.9632 | 256.3147 | 13.96938 | – |
| 2026 May 01 17:56 | 2026 Apr 30 09:33:33 | 99.2334 | 0.01541 | 12.0192 | 129.9632 | 256.3147 | 13.96938 | – |
| 2026 Apr 30 17:56 | 2026 Apr 30 09:33:33 | 99.2334 | 0.01541 | 12.0192 | 129.9632 | 256.3147 | 13.96938 | – |
| 2026 Apr 29 17:57 | 2026 Apr 24 09:24:01 | 99.2336 | 0.01540 | 11.6170 | 146.2294 | 256.3147 | 13.96938 | – |
| 2026 Apr 28 17:56 | 2026 Apr 24 09:24:01 | 99.2336 | 0.01540 | 11.6170 | 146.2294 | 256.3147 | 13.96938 | – |
| 2026 Apr 27 17:58 | 2026 Apr 24 09:24:01 | 99.2336 | 0.01540 | 11.6170 | 146.2294 | 256.3147 | 13.96938 | – |
| 2026 Apr 26 17:58 | 2026 Apr 24 09:24:01 | 99.2336 | 0.01540 | 11.6170 | 146.2294 | 256.3147 | 13.96938 | – |
| 2026 Apr 25 17:58 | 2026 Apr 24 09:24:01 | 99.2336 | 0.01540 | 11.6170 | 146.2294 | 256.3147 | 13.96938 | – |
| 2026 Apr 24 17:59 | 2026 Apr 24 09:24:01 | 99.2336 | 0.01540 | 11.6170 | 146.2294 | 256.3147 | 13.96938 | – |
| 2026 Apr 23 17:57 | 2026 Apr 19 10:34:36 | 99.2339 | 0.01539 | 11.2854 | 159.7157 | 256.3147 | 13.96938 | – |
| 2026 Apr 22 17:57 | 2026 Apr 19 10:34:36 | 99.2339 | 0.01539 | 11.2854 | 159.7157 | 256.3147 | 13.96938 | – |
| 2026 Apr 21 17:57 | 2026 Apr 19 10:34:36 | 99.2339 | 0.01539 | 11.2854 | 159.7157 | 256.3147 | 13.96938 | – |
| 2026 Apr 20 17:57 | 2026 Apr 19 10:34:36 | 99.2339 | 0.01539 | 11.2854 | 159.7157 | 256.3147 | 13.96938 | – |
| 2026 Apr 19 17:58 | 2026 Apr 19 10:34:36 | 99.2339 | 0.01539 | 11.2854 | 159.7157 | 256.3147 | 13.96938 | – |
| 2026 Apr 18 17:56 | 2026 Apr 12 17:28:57 | 99.2350 | 0.01536 | 10.8359 | 178.0437 | 256.3147 | 13.96938 | – |
| 2026 Apr 16 17:57 | 2026 Apr 12 17:28:57 | 99.2350 | 0.01536 | 10.8359 | 178.0437 | 256.3147 | 13.96938 | – |
| 2026 Apr 14 17:57 | 2026 Apr 12 17:28:57 | 99.2350 | 0.01536 | 10.8359 | 178.0437 | 256.3147 | 13.96938 | – |
| 2026 Apr 13 17:57 | 2026 Apr 12 17:28:57 | 99.2350 | 0.01536 | 10.8359 | 178.0437 | 256.3147 | 13.96938 | – |
| 2026 Apr 12 17:57 | 2026 Apr 08 09:49:24 | 99.2362 | 0.01533 | 10.5466 | 189.8136 | 256.3147 | 13.96938 | – |
| 2026 Apr 11 17:57 | 2026 Apr 08 09:49:24 | 99.2362 | 0.01533 | 10.5466 | 189.8136 | 256.3147 | 13.96938 | – |
| 2026 Apr 10 17:58 | 2026 Apr 08 09:49:24 | 99.2362 | 0.01533 | 10.5466 | 189.8136 | 256.3147 | 13.96938 | – |
| 2026 Apr 09 18:01 | 2026 Apr 08 09:49:24 | 99.2362 | 0.01533 | 10.5466 | 189.8136 | 256.3147 | 13.96938 | – |
| 2026 Apr 08 17:57 | 2026 Apr 08 09:49:24 | 99.2362 | 0.01533 | 10.5466 | 189.8136 | 256.3147 | 13.96938 | – |